1898 NOT_NAMED (1898213N16128)


IBTrACS version v04r00. Visit IBTrACS website for data access.
Please direct all questions to the IBTrACS Q and A forum

Storm track - Intensity - Wind Radii - Intensity Data - Source Data - All data

Summary Information

Storm ID 1898213N16128
Start Jul 31 16Z
Landfall Aug 1 00Z, Aug 5 03Z
End Aug 6 04Z
ATCF IDs
Track status Best track data.

Storm track plot

Map of storm track

Intensity plots

No Intensity information for this storm


Radial wind information

No radial wind information for this storm


Position and Intensity Table

BASIN ISO_TIME_________ NATURE LAT LON
degrees north degrees east
WP 1898-07-31 16:00:00 NR 16.20 128.00
WP 18:00:00 NR 16.64 126.25
WP 21:00:00 NR 17.24 123.73
WP 1898-08-01 00:00:00 NR 17.74 121.52
WP 03:00:00 NR 18.11 119.82
WP 04:00:00 NR 18.20 119.40
WP 06:00:00 NR 18.32 118.80
WP 09:00:00 NR 18.41 118.40
WP 12:00:00 NR 18.42 118.37
WP 15:00:00 NR 18.40 118.48
WP 16:00:00 NR 18.40 118.50
WP 18:00:00 NR 18.43 118.36
WP 21:00:00 NR 18.46 118.15
WP 1898-08-02 00:00:00 NR 18.51 117.95
WP 03:00:00 NR 18.57 117.76
WP 04:00:00 NR 18.60 117.70
WP 06:00:00 NR 18.66 117.58
WP 09:00:00 NR 18.78 117.39
WP 12:00:00 NR 18.91 117.22
WP 15:00:00 NR 19.05 117.05
WP 16:00:00 NR 19.10 117.00
WP 18:00:00 NR 19.19 116.90
WP 21:00:00 NR 19.34 116.75
WP 1898-08-03 00:00:00 NR 19.49 116.60
WP 03:00:00 NR 19.65 116.45
WP 04:00:00 NR 19.70 116.40
WP 06:00:00 NR 19.81 116.29
WP 09:00:00 NR 19.99 116.12
WP 12:00:00 NR 20.17 115.95
WP 15:00:00 NR 20.34 115.76
WP 16:00:00 NR 20.40 115.70
WP 18:00:00 NR 20.51 115.59
WP 21:00:00 NR 20.67 115.42
WP 1898-08-04 00:00:00 NR 20.82 115.23
WP 03:00:00 NR 20.96 114.99
WP 04:00:00 NR 21.00 114.90
WP 06:00:00 NR 21.08 114.70
WP 09:00:00 NR 21.20 114.35
WP 12:00:00 NR 21.29 113.96
WP 15:00:00 NR 21.38 113.54
WP 16:00:00 NR 21.40 113.40
WP 18:00:00 NR 21.44 113.12
WP 21:00:00 NR 21.49 112.69
WP 1898-08-05 00:00:00 NR 21.53 112.24
WP 03:00:00 NR 21.58 111.76
WP 04:00:00 NR 21.60 111.60
WP 06:00:00 NR 21.66 111.27
WP 09:00:00 NR 21.76 110.76
WP 12:00:00 NR 21.86 110.22
WP 15:00:00 NR 21.97 109.68
WP 16:00:00 NR 22.00 109.50
WP 18:00:00 NR 22.06 109.14
WP 21:00:00 NR 22.14 108.59
WP 1898-08-06 00:00:00 NR 22.21 108.04
WP 03:00:00 NR 22.28 107.48
WP 04:00:00 NR 22.30 107.30

Source Information

Agency Information
USA
TOKYO
CMA
HKO
NEWDELHI
REUNION
BOM
NADI
WELLINGTON
DS824
TD9636 cons_worldwide_trop_cyclone_18710101-19891231-003:Line=1861
TD9635
NEUMANN
MLC

All available IBTrACS Data

SEASON BASIN SUBBASIN ISO_TIME_________ NATURE LAT LON DIST2LAND LANDFALL IFLAG USA SSHS TD9636 LAT TD9636 LON TD9636 STAGE STORM SPEED STORM DIR
Year degrees north degrees east km km 1 degrees north degrees east kts degrees
1898 WP MM 1898-07-31 16:00:00 NR 16.20 128.00 464 361 __________O___ -1 16.20 128.00 7 52 285
1898 WP MM 18:00:00 NR 16.64 126.25 361 129 __________P___ -1 16.64 126.25 7 51 284
1898 WP MM 21:00:00 NR 17.24 123.73 129 0 __________P___ -1 17.24 123.73 7 47 284
1898 WP MM 1898-08-01 00:00:00 NR 17.74 121.52 0 0 __________P___ -1 17.74 121.52 7 38 283
1898 WP MM 03:00:00 NR 18.11 119.82 73 84 __________P___ -1 18.11 119.82 7 31 283
1898 WP MM 04:00:00 NR 18.20 119.40 116 116 __________O___ -1 18.20 119.40 7 20 282
1898 WP MM 06:00:00 NR 18.32 118.80 176 176 __________P___ -1 18.32 118.80 7 12 282
1898 WP MM 09:00:00 NR 18.41 118.40 219 219 __________P___ -1 18.41 118.40 7 4 283
1898 WP MM 12:00:00 NR 18.42 118.37 219 210 __________P___ -1 18.42 118.37 7 1 95
1898 WP MM 15:00:00 NR 18.40 118.48 210 210 __________P___ -1 18.40 118.48 7 2 99
1898 WP MM 16:00:00 NR 18.40 118.50 210 210 __________O___ -1 18.40 118.50 7 2 282
1898 WP MM 18:00:00 NR 18.43 118.36 219 229 __________P___ -1 18.43 118.36 7 4 281
1898 WP MM 21:00:00 NR 18.46 118.15 243 253 __________P___ -1 18.46 118.15 7 4 282
1898 WP MM 1898-08-02 00:00:00 NR 18.51 117.95 263 273 __________P___ -1 18.51 117.95 7 4 287
1898 WP MM 03:00:00 NR 18.57 117.76 286 286 __________P___ -1 18.57 117.76 7 4 291
1898 WP MM 04:00:00 NR 18.60 117.70 296 296 __________O___ -1 18.60 117.70 7 4 297
1898 WP MM 06:00:00 NR 18.66 117.58 310 310 __________P___ -1 18.66 117.58 7 4 301
1898 WP MM 09:00:00 NR 18.78 117.39 334 334 __________P___ -1 18.78 117.39 7 4 306
1898 WP MM 12:00:00 NR 18.91 117.22 358 358 __________P___ -1 18.91 117.22 7 4 310
1898 WP MM 15:00:00 NR 19.05 117.05 375 385 __________P___ -1 19.05 117.05 7 4 313
1898 WP MM 16:00:00 NR 19.10 117.00 385 385 __________O___ -1 19.10 117.00 3 4 313
1898 WP MM 18:00:00 NR 19.19 116.90 398 391 __________P___ -1 19.19 116.90 3 4 315
1898 WP MM 21:00:00 NR 19.34 116.75 391 367 __________P___ -1 19.34 116.75 3 4 317
1898 WP MM 1898-08-03 00:00:00 NR 19.49 116.60 367 354 __________P___ -1 19.49 116.60 3 4 318
1898 WP MM 03:00:00 NR 19.65 116.45 354 341 __________P___ -1 19.65 116.45 3 4 318
1898 WP MM 04:00:00 NR 19.70 116.40 341 328 __________O___ -1 19.70 116.40 4 5 318
1898 WP MM 06:00:00 NR 19.81 116.29 328 303 __________P___ -1 19.81 116.29 4 5 318
1898 WP MM 09:00:00 NR 19.99 116.12 303 277 __________P___ -1 19.99 116.12 4 5 318
1898 WP MM 12:00:00 NR 20.17 115.95 277 263 __________P___ -1 20.17 115.95 4 5 316
1898 WP MM 15:00:00 NR 20.34 115.76 263 248 __________P___ -1 20.34 115.76 4 5 315
1898 WP MM 16:00:00 NR 20.40 115.70 248 235 __________O___ -1 20.40 115.70 4 5 316
1898 WP MM 18:00:00 NR 20.51 115.59 235 207 __________P___ -1 20.51 115.59 4 5 316
1898 WP MM 21:00:00 NR 20.67 115.42 207 191 __________P___ -1 20.67 115.42 4 5 312
1898 WP MM 1898-08-04 00:00:00 NR 20.82 115.23 191 162 __________P___ -1 20.82 115.23 4 5 306
1898 WP MM 03:00:00 NR 20.96 114.99 162 158 __________P___ -1 20.96 114.99 4 5 300
1898 WP MM 04:00:00 NR 21.00 114.90 158 140 __________O___ -1 21.00 114.90 4 6 295
1898 WP MM 06:00:00 NR 21.08 114.70 140 123 __________P___ -1 21.08 114.70 4 7 291
1898 WP MM 09:00:00 NR 21.20 114.35 123 113 __________P___ -1 21.20 114.35 4 7 287
1898 WP MM 12:00:00 NR 21.29 113.96 113 76 __________P___ -1 21.29 113.96 4 8 283
1898 WP MM 15:00:00 NR 21.38 113.54 76 69 __________P___ -1 21.38 113.54 4 8 282
1898 WP MM 16:00:00 NR 21.40 113.40 69 56 __________O___ -1 21.40 113.40 4 8 279
1898 WP MM 18:00:00 NR 21.44 113.12 56 35 __________P___ -1 21.44 113.12 4 8 277
1898 WP MM 21:00:00 NR 21.49 112.69 35 22 __________P___ -1 21.49 112.69 4 8 276
1898 WP MM 1898-08-05 00:00:00 NR 21.53 112.24 22 0 __________P___ -1 21.53 112.24 4 9 276
1898 WP MM 03:00:00 NR 21.58 111.76 0 0 __________P___ -1 21.58 111.76 4 9 277
1898 WP MM 04:00:00 NR 21.60 111.60 0 0 __________O___ -1 21.60 111.60 4 9 280
1898 WP MM 06:00:00 NR 21.66 111.27 0 0 __________P___ -1 21.66 111.27 4 10 281
1898 WP MM 09:00:00 NR 21.76 110.76 0 0 __________P___ -1 21.76 110.76 4 10 282
1898 WP MM 12:00:00 NR 21.86 110.22 0 0 __________P___ -1 21.86 110.22 4 10 282
1898 WP MM 15:00:00 NR 21.97 109.68 0 0 __________P___ -1 21.97 109.68 4 10 282
1898 WP MM 16:00:00 NR 22.00 109.50 0 0 __________O___ -1 22.00 109.50 4 10 280
1898 WP MM 18:00:00 NR 22.06 109.14 0 0 __________P___ -1 22.06 109.14 4 10 279
1898 WP MM 21:00:00 NR 22.14 108.59 0 0 __________P___ -1 22.14 108.59 4 10 279
1898 WP MM 1898-08-06 00:00:00 NR 22.21 108.04 0 0 __________P___ -1 22.21 108.04 4 10 278
1898 WP MM 03:00:00 NR 22.28 107.48 0 0 __________P___ -1 22.28 107.48 4 10 277
1898 WP MM 04:00:00 NR 22.30 107.30 0 __________O___ -1 22.30 107.30 4 10 277